Time;durP1;ratioP1;P1;durP2;ratioP2;P2;SDS_P1;SDS_P2;PMS_P1;PMS_P2;Temp;Humidity;BMP_temperature;BMP_pressure;BME280_temperature;BME280_humidity;BME280_pressure;Samples;Min_cycle;Max_cycle;Signal;HPM_P1;HPM_P2
2022/01/30 00:01:09;;;;;;;33.42;6.70;;;7.40;99.90;;;;;;5033420;28;20029;-45
2022/01/30 00:03:35;;;;;;;30.55;5.00;;;7.40;99.90;;;;;;5033217;28;20597;-35
2022/01/30 00:06:00;;;;;;;20.08;2.58;;;7.40;99.90;;;;;;5033349;28;20112;-37
2022/01/30 00:08:26;;;;;;;16.52;2.53;;;7.40;99.90;;;;;;5032789;28;20513;-34
2022/01/30 00:10:58;;;;;;;17.15;2.90;;;7.50;99.90;;;;;;5032342;28;20052;-38
2022/01/30 00:13:26;;;;;;;32.08;2.40;;;7.50;99.90;;;;;;5033533;28;20371;-35
2022/01/30 00:15:54;;;;;;;22.02;4.38;;;7.40;99.90;;;;;;5033160;28;20462;-35
2022/01/30 00:21:28;;;;;;;26.60;3.25;;;7.30;99.90;;;;;;5033484;28;20029;-36
2022/01/30 00:26:32;;;;;;;22.27;2.15;;;7.40;99.90;;;;;;5033397;28;20033;-35
2022/01/30 00:28:59;;;;;;;23.38;3.00;;;7.30;99.90;;;;;;5033254;28;20029;-32
2022/01/30 00:31:26;;;;;;;12.77;2.40;;;7.30;99.90;;;;;;5032924;28;20029;-34
2022/01/30 00:33:52;;;;;;;23.73;3.15;;;7.30;99.90;;;;;;5033289;28;20100;-36
2022/01/30 00:36:18;;;;;;;18.55;2.92;;;7.30;99.90;;;;;;5033048;28;20025;-39
2022/01/30 00:38:44;;;;;;;26.77;2.75;;;7.30;99.90;;;;;;5032847;28;20025;-35
2022/01/30 00:41:10;;;;;;;24.67;2.95;;;7.30;99.90;;;;;;5032864;28;20462;-33
2022/01/30 00:43:35;;;;;;;33.47;3.60;;;7.30;99.90;;;;;;5032801;28;20067;-38
2022/01/30 00:46:01;;;;;;;23.30;2.85;;;7.20;99.90;;;;;;5032986;28;20026;-34
2022/01/30 00:48:27;;;;;;;28.30;3.47;;;7.20;99.90;;;;;;5032609;28;20033;-37
2022/01/30 00:50:53;;;;;;;24.05;3.55;;;7.20;99.90;;;;;;5032703;28;20079;-34
2022/01/30 00:53:19;;;;;;;23.20;2.70;;;7.20;99.90;;;;;;5032662;28;20044;-31
2022/01/30 00:55:45;;;;;;;18.30;2.95;;;7.20;99.90;;;;;;5032457;28;20091;-31
2022/01/30 00:58:11;;;;;;;22.25;3.78;;;7.20;99.90;;;;;;5032824;28;20022;-32
2022/01/30 01:00:37;;;;;;;14.93;2.75;;;7.20;99.90;;;;;;5032515;28;20068;-31
2022/01/30 01:03:04;;;;;;;24.95;3.05;;;7.20;99.90;;;;;;5032424;28;20091;-32
2022/01/30 01:05:31;;;;;;;25.70;3.17;;;7.20;99.90;;;;;;5032558;28;20084;-34
2022/01/30 01:07:59;;;;;;;43.07;5.43;;;7.10;99.90;;;;;;5032847;28;20044;-32
2022/01/30 01:21:01;;;;;;;17.70;2.67;;;7.00;99.90;;;;;;5036433;28;20084;-42
2022/01/30 01:23:35;;;;;;;18.27;3.75;;;7.10;99.90;;;;;;5036667;28;20021;-54
2022/01/30 01:26:01;;;;;;;28.48;3.85;;;7.00;99.90;;;;;;5036370;28;20025;-42
2022/01/30 01:28:27;;;;;;;16.05;3.20;;;7.10;99.90;;;;;;5036277;28;20035;-32
2022/01/30 01:30:53;;;;;;;24.33;2.25;;;7.10;99.90;;;;;;5036179;28;20021;-31
2022/01/30 01:33:20;;;;;;;18.85;2.53;;;7.10;99.90;;;;;;5036525;28;20052;-34
2022/01/30 01:35:46;;;;;;;22.98;2.28;;;7.00;99.90;;;;;;5036307;28;20032;-31
2022/01/30 01:38:14;;;;;;;17.27;2.38;;;7.00;99.90;;;;;;5036189;28;20033;-30
2022/01/30 01:40:43;;;;;;;26.23;2.97;;;7.00;99.90;;;;;;5036362;28;20572;-32
2022/01/30 01:43:08;;;;;;;16.00;2.55;;;7.00;99.90;;;;;;5036271;28;20033;-36
2022/01/30 01:45:38;;;;;;;31.67;3.08;;;7.00;99.90;;;;;;5035821;28;20030;-32
2022/01/30 01:48:10;;;;;;;25.25;3.85;;;7.00;99.90;;;;;;5035711;28;20053;-38
2022/01/30 01:50:40;;;;;;;20.50;3.25;;;7.10;99.90;;;;;;5035767;28;20032;-33
2022/01/30 01:53:11;;;;;;;15.10;2.95;;;7.10;99.90;;;;;;5035910;28;20025;-36
2022/01/30 01:55:37;;;;;;;18.95;2.50;;;7.00;99.90;;;;;;5035853;28;20040;-29
2022/01/30 01:58:04;;;;;;;16.33;2.42;;;7.00;99.90;;;;;;5035830;28;20045;-31
2022/01/30 02:00:30;;;;;;;19.98;2.75;;;7.00;99.90;;;;;;5035766;28;20427;-34
2022/01/30 02:02:56;;;;;;;16.33;2.10;;;7.00;99.90;;;;;;5035036;28;20125;-31
2022/01/30 02:05:30;;;;;;;15.00;2.33;;;7.00;99.90;;;;;;5035615;28;20105;-31
2022/01/30 02:10:33;;;;;;;10.88;2.38;;;6.90;99.90;;;;;;5035922;28;20112;-32
2022/01/30 02:13:13;;;;;;;10.38;2.00;;;6.90;99.90;;;;;;5035827;28;20072;-31
2022/01/30 02:24:08;;;;;;;18.63;2.50;;;6.80;99.90;;;;;;5035529;28;20032;-31
2022/01/30 02:26:43;;;;;;;22.40;2.63;;;6.80;99.90;;;;;;5035579;28;20104;-31
2022/01/30 02:29:08;;;;;;;10.98;2.08;;;6.80;99.90;;;;;;5035462;28;20505;-30
2022/01/30 02:31:39;;;;;;;29.75;3.47;;;6.70;99.90;;;;;;5034757;28;20107;-39
2022/01/30 02:34:05;;;;;;;17.90;2.53;;;6.70;99.90;;;;;;5035104;28;20025;-32
2022/01/30 02:36:31;;;;;;;18.25;2.38;;;6.80;99.90;;;;;;5034981;28;20048;-36
2022/01/30 02:38:59;;;;;;;8.70;1.73;;;6.80;99.90;;;;;;5035265;28;20470;-39
2022/01/30 02:41:25;;;;;;;11.77;1.95;;;6.90;99.90;;;;;;5034988;28;20093;-36
2022/01/30 02:44:09;;;;;;;26.38;2.85;;;6.90;99.90;;;;;;5035008;28;20096;-34
2022/01/30 02:46:39;;;;;;;20.92;3.22;;;7.00;99.90;;;;;;5035156;28;20025;-66
2022/01/30 02:51:52;;;;;;;12.60;1.52;;;6.80;99.90;;;;;;5035108;28;20029;-36
2022/01/30 02:54:18;;;;;;;14.05;2.33;;;6.80;99.90;;;;;;5035076;28;20397;-33
2022/01/30 02:56:44;;;;;;;10.60;2.03;;;6.70;99.90;;;;;;5034558;28;20026;-40
2022/01/30 02:59:10;;;;;;;19.42;1.77;;;6.70;99.90;;;;;;5034646;28;20041;-32
2022/01/30 03:01:36;;;;;;;24.95;3.40;;;6.60;99.90;;;;;;5034797;28;20021;-34
2022/01/30 03:04:02;;;;;;;12.10;2.85;;;6.60;99.90;;;;;;5034429;28;20053;-35
2022/01/30 03:06:28;;;;;;;16.17;1.50;;;6.60;99.90;;;;;;5034461;28;20486;-31
2022/01/30 03:08:54;;;;;;;16.88;2.17;;;6.60;99.90;;;;;;5034423;28;20364;-38
2022/01/30 03:11:20;;;;;;;14.50;1.60;;;6.60;99.90;;;;;;5034372;28;20096;-32
2022/01/30 03:13:45;;;;;;;15.00;2.40;;;6.60;99.90;;;;;;5034426;28;20075;-36
2022/01/30 03:16:11;;;;;;;11.20;2.05;;;6.60;99.90;;;;;;5034236;28;20026;-36
2022/01/30 03:18:37;;;;;;;6.25;1.45;;;6.50;99.90;;;;;;5034639;28;20109;-34
2022/01/30 03:21:04;;;;;;;18.70;1.45;;;6.50;99.90;;;;;;5034522;28;20022;-34
2022/01/30 03:23:30;;;;;;;12.48;2.08;;;6.40;99.90;;;;;;5034218;28;20063;-32
2022/01/30 03:25:59;;;;;;;8.98;1.30;;;6.40;99.90;;;;;;5034101;28;20017;-35
2022/01/30 03:28:26;;;;;;;6.28;1.33;;;6.40;99.90;;;;;;5034127;28;20044;-32
2022/01/30 03:30:56;;;;;;;14.07;1.25;;;6.40;99.90;;;;;;5034233;28;20478;-31
2022/01/30 03:33:22;;;;;;;14.88;1.45;;;6.40;99.90;;;;;;5034079;28;20025;-32
2022/01/30 03:35:48;;;;;;;4.38;0.55;;;6.40;99.90;;;;;;5033810;28;20425;-34
2022/01/30 03:38:14;;;;;;;25.48;3.13;;;6.40;99.90;;;;;;5033930;28;20017;-32
2022/01/30 03:40:40;;;;;;;17.42;2.47;;;6.30;99.90;;;;;;5034138;28;20505;-30
2022/01/30 03:43:06;;;;;;;17.48;3.40;;;6.40;99.90;;;;;;5033171;28;20009;-31
2022/01/30 03:45:32;;;;;;;7.03;1.60;;;6.40;99.90;;;;;;5033810;28;20037;-34
2022/01/30 03:47:57;;;;;;;13.80;1.27;;;6.40;99.90;;;;;;5033639;28;20033;-32
2022/01/30 03:50:24;;;;;;;13.70;1.52;;;6.40;99.90;;;;;;5033632;28;20021;-31
2022/01/30 03:52:50;;;;;;;8.02;1.25;;;6.40;99.90;;;;;;5033662;28;20405;-30
2022/01/30 03:55:16;;;;;;;10.00;1.90;;;6.40;99.90;;;;;;5033737;28;20022;-33
2022/01/30 04:00:26;;;;;;;16.10;1.35;;;6.30;99.90;;;;;;5033959;28;20513;-31
2022/01/30 04:02:52;;;;;;;5.20;0.93;;;6.30;99.90;;;;;;5033462;28;20045;-65
2022/01/30 04:05:17;;;;;;;8.95;1.40;;;6.40;99.90;;;;;;5033695;28;20036;-33
2022/01/30 04:10:30;;;;;;;20.10;2.08;;;6.20;99.90;;;;;;5033553;28;20550;-38
2022/01/30 04:12:56;;;;;;;10.05;1.83;;;6.20;99.90;;;;;;5033389;28;20551;-33
2022/01/30 04:15:22;;;;;;;11.63;1.80;;;6.20;99.90;;;;;;5033090;28;20034;-31
2022/01/30 04:17:48;;;;;;;14.85;1.83;;;6.30;99.90;;;;;;5032046;28;20036;-35
2022/01/30 04:20:14;;;;;;;13.20;1.50;;;6.30;99.90;;;;;;5033224;28;20112;-33
2022/01/30 04:22:39;;;;;;;8.13;1.95;;;6.30;99.90;;;;;;5033127;28;20056;-33
2022/01/30 04:25:05;;;;;;;13.15;1.70;;;6.30;99.90;;;;;;5033311;28;20052;-32
2022/01/30 04:27:31;;;;;;;10.60;1.48;;;6.30;99.90;;;;;;5033312;28;20042;-38
2022/01/30 04:29:57;;;;;;;14.00;1.40;;;6.30;99.90;;;;;;5031584;28;20544;-29
2022/01/30 04:32:25;;;;;;;6.68;1.45;;;6.30;99.90;;;;;;5032977;28;20033;-33
2022/01/30 04:34:56;;;;;;;9.95;1.95;;;6.30;99.90;;;;;;5032841;28;20104;-34
2022/01/30 04:37:36;;;;;;;9.20;1.73;;;6.20;99.90;;;;;;5033139;28;20036;-34
2022/01/30 04:53:53;;;;;;;17.10;1.58;;;6.20;99.90;;;;;;5032626;28;20044;-34
2022/01/30 05:09:25;;;;;;;10.35;2.30;;;6.20;99.90;;;;;;5032806;28;20037;-35
2022/01/30 05:11:50;;;;;;;18.25;1.95;;;6.30;99.90;;;;;;5032496;28;20029;-33
2022/01/30 05:14:20;;;;;;;10.10;2.03;;;6.40;99.90;;;;;;5032489;28;20025;-32
2022/01/30 05:16:46;;;;;;;18.55;2.40;;;6.40;99.90;;;;;;5032673;28;20030;-32
2022/01/30 05:19:12;;;;;;;13.15;3.05;;;6.50;99.90;;;;;;5032388;28;20393;-34
2022/01/30 05:21:39;;;;;;;11.90;2.08;;;6.50;99.90;;;;;;5032433;28;20029;-39
2022/01/30 05:24:05;;;;;;;20.63;2.60;;;6.60;99.90;;;;;;5032325;28;20026;-40
2022/01/30 05:26:31;;;;;;;13.68;2.22;;;6.70;99.90;;;;;;5032699;28;20489;-33
2022/01/30 05:28:57;;;;;;;22.40;2.55;;;6.70;99.90;;;;;;5032254;28;20108;-33
2022/01/30 05:31:23;;;;;;;19.60;2.50;;;6.70;99.90;;;;;;5032342;28;20057;-29
2022/01/30 05:33:49;;;;;;;9.70;2.05;;;6.60;99.90;;;;;;5032254;28;20025;-32
2022/01/30 05:36:15;;;;;;;16.83;3.28;;;6.70;99.90;;;;;;5032213;28;20034;-32
2022/01/30 05:38:41;;;;;;;24.52;2.85;;;6.70;99.90;;;;;;5032227;28;20508;-33
2022/01/30 05:41:07;;;;;;;12.88;2.28;;;6.60;99.90;;;;;;5032330;28;20401;-32
2022/01/30 05:43:34;;;;;;;15.27;2.55;;;6.60;99.90;;;;;;5032476;28;20025;-33
2022/01/30 05:46:15;;;;;;;16.50;2.67;;;6.50;99.90;;;;;;5032196;28;20034;-33
2022/01/30 05:48:41;;;;;;;16.33;2.50;;;6.50;99.90;;;;;;5032107;28;20029;-34
2022/01/30 05:51:07;;;;;;;23.80;2.50;;;6.50;99.90;;;;;;5032157;28;20033;-34
2022/01/30 05:53:33;;;;;;;18.67;1.83;;;6.50;99.90;;;;;;5032158;28;20030;-29
2022/01/30 05:55:58;;;;;;;13.10;1.92;;;6.50;99.90;;;;;;5032253;28;20021;-30
2022/01/30 05:58:24;;;;;;;11.77;2.05;;;6.40;99.90;;;;;;5032379;28;20406;-32
2022/01/30 06:00:50;;;;;;;20.48;2.15;;;6.40;99.90;;;;;;5032019;28;20022;-31
2022/01/30 06:03:16;;;;;;;20.30;2.00;;;6.50;99.90;;;;;;5031912;28;20045;-37
2022/01/30 06:05:45;;;;;;;17.50;2.15;;;6.40;99.90;;;;;;5032009;28;20041;-33
2022/01/30 06:08:14;;;;;;;17.58;2.78;;;6.40;99.90;;;;;;5035864;28;20077;-33
2022/01/30 06:10:40;;;;;;;11.98;2.05;;;6.40;99.90;;;;;;5035492;28;20025;-33
2022/01/30 06:13:05;;;;;;;16.20;2.42;;;6.40;99.90;;;;;;5035520;28;20033;-34
2022/01/30 06:15:31;;;;;;;13.32;1.80;;;6.30;99.90;;;;;;5035341;28;20053;-30
2022/01/30 06:17:57;;;;;;;11.77;2.30;;;6.30;99.90;;;;;;5035349;28;20112;-31
2022/01/30 06:20:22;;;;;;;15.05;1.67;;;6.30;99.90;;;;;;5035363;28;20474;-31
2022/01/30 06:22:48;;;;;;;17.38;2.40;;;6.30;99.90;;;;;;5035315;28;20026;-35
2022/01/30 06:25:14;;;;;;;20.75;2.28;;;6.30;99.90;;;;;;5035274;28;20056;-40
2022/01/30 06:27:40;;;;;;;18.13;3.28;;;6.20;99.90;;;;;;5035256;28;20099;-37
2022/01/30 06:30:07;;;;;;;13.35;1.60;;;6.20;99.90;;;;;;5035092;28;20425;-33
2022/01/30 06:32:33;;;;;;;19.33;3.43;;;6.10;99.90;;;;;;5033718;28;20056;-33
2022/01/30 06:34:59;;;;;;;17.88;2.75;;;6.00;99.90;;;;;;5034981;28;20065;-31
2022/01/30 06:37:25;;;;;;;14.23;2.13;;;6.00;99.90;;;;;;5035053;28;20080;-31
2022/01/30 06:39:50;;;;;;;25.40;2.30;;;6.00;99.90;;;;;;5035199;28;20044;-33
2022/01/30 06:42:16;;;;;;;11.60;2.08;;;5.90;99.90;;;;;;5034972;28;20033;-35
2022/01/30 06:44:43;;;;;;;18.63;2.78;;;5.90;99.90;;;;;;5035176;28;20018;-33
2022/01/30 06:47:09;;;;;;;18.92;2.75;;;5.90;99.90;;;;;;5034854;28;20021;-35
2022/01/30 06:49:35;;;;;;;19.88;3.55;;;5.90;99.90;;;;;;5034812;28;20032;-35
2022/01/30 06:52:00;;;;;;;13.50;1.83;;;5.90;99.90;;;;;;5034759;28;20026;-34
2022/01/30 06:54:27;;;;;;;18.38;2.17;;;5.90;99.90;;;;;;5034742;28;20109;-32
2022/01/30 06:56:52;;;;;;;14.63;3.05;;;5.90;99.90;;;;;;5032833;28;20033;-38
2022/01/30 06:59:18;;;;;;;28.08;2.42;;;6.00;99.90;;;;;;5034614;28;20025;-37
2022/01/30 07:01:44;;;;;;;23.88;2.05;;;5.90;99.90;;;;;;5034660;28;20013;-37
2022/01/30 07:04:10;;;;;;;28.77;3.67;;;5.90;99.90;;;;;;5034394;28;20486;-38
2022/01/30 07:06:35;;;;;;;19.58;1.73;;;5.90;99.90;;;;;;5034486;28;20148;-33
2022/01/30 07:09:01;;;;;;;19.17;2.42;;;5.90;99.90;;;;;;5034692;28;20052;-38
2022/01/30 07:11:26;;;;;;;13.65;1.90;;;5.90;99.90;;;;;;5034386;28;20029;-37
2022/01/30 07:13:52;;;;;;;13.10;2.22;;;5.90;99.90;;;;;;5034600;28;20022;-32
2022/01/30 07:16:18;;;;;;;20.40;1.90;;;5.80;99.90;;;;;;5034413;28;20493;-31
2022/01/30 07:18:43;;;;;;;19.23;2.60;;;5.80;99.90;;;;;;5034546;28;20112;-38
2022/01/30 07:21:09;;;;;;;23.98;2.33;;;5.80;99.90;;;;;;5034350;28;20033;-38
2022/01/30 07:23:36;;;;;;;16.42;3.47;;;5.80;99.90;;;;;;5034454;28;20025;-35
2022/01/30 07:26:02;;;;;;;21.73;2.80;;;5.90;99.90;;;;;;5034119;28;20037;-42
2022/01/30 07:28:28;;;;;;;29.95;3.60;;;5.80;99.90;;;;;;5034134;28;20033;-32
2022/01/30 07:30:54;;;;;;;19.42;2.47;;;5.80;99.90;;;;;;5033923;28;20108;-33
2022/01/30 07:33:20;;;;;;;20.83;2.78;;;5.80;99.90;;;;;;5034366;28;20473;-35
2022/01/30 07:35:46;;;;;;;17.10;2.08;;;5.80;99.90;;;;;;5033946;28;20033;-33
2022/01/30 07:38:12;;;;;;;26.92;2.83;;;5.80;99.90;;;;;;5034031;28;20032;-32
2022/01/30 07:40:38;;;;;;;14.45;3.53;;;5.80;99.90;;;;;;5034150;28;20445;-34
2022/01/30 07:43:04;;;;;;;21.05;3.13;;;5.80;99.90;;;;;;5033946;28;20034;-34
2022/01/30 07:45:29;;;;;;;12.63;2.90;;;5.80;99.90;;;;;;5034066;28;20029;-35
2022/01/30 07:47:55;;;;;;;12.52;2.00;;;5.80;99.90;;;;;;5033787;28;20033;-39
2022/01/30 07:50:21;;;;;;;24.75;2.63;;;5.80;99.90;;;;;;5033701;28;20080;-36
2022/01/30 07:52:46;;;;;;;26.27;3.13;;;5.70;99.90;;;;;;5033822;28;20064;-38
2022/01/30 07:55:12;;;;;;;17.65;2.63;;;5.80;99.90;;;;;;5033516;28;20486;-31
2022/01/30 07:57:38;;;;;;;22.85;3.47;;;5.90;99.90;;;;;;5033587;28;20041;-37
2022/01/30 08:00:05;;;;;;;16.73;3.22;;;5.90;99.90;;;;;;5033555;28;20516;-32
2022/01/30 08:02:30;;;;;;;18.88;2.90;;;5.90;99.90;;;;;;5033537;28;20029;-34
2022/01/30 08:04:56;;;;;;;22.95;2.17;;;6.00;99.90;;;;;;5033287;28;20552;-36
2022/01/30 08:07:22;;;;;;;23.88;3.92;;;6.00;99.90;;;;;;5033457;28;20037;-35
2022/01/30 08:09:48;;;;;;;22.77;3.10;;;6.00;99.90;;;;;;5033353;28;20045;-59
2022/01/30 08:12:15;;;;;;;30.75;3.33;;;6.10;99.90;;;;;;5033561;28;20552;-34
2022/01/30 08:14:40;;;;;;;23.60;3.70;;;6.00;99.90;;;;;;5033345;28;20099;-34
2022/01/30 08:17:06;;;;;;;19.00;1.85;;;6.10;99.90;;;;;;5033091;28;20116;-31
2022/01/30 08:19:32;;;;;;;27.30;2.92;;;6.10;99.90;;;;;;5033230;28;20064;-36
2022/01/30 08:22:00;;;;;;;32.28;3.08;;;6.10;99.90;;;;;;5033158;28;20025;-31
2022/01/30 08:24:26;;;;;;;25.50;3.03;;;6.10;99.90;;;;;;5033370;28;20489;-37
2022/01/30 08:26:51;;;;;;;18.48;3.70;;;6.10;99.90;;;;;;5033121;28;20061;-33
2022/01/30 08:29:17;;;;;;;18.15;3.47;;;6.20;99.90;;;;;;5032356;28;20120;-30
2022/01/30 08:31:43;;;;;;;10.93;2.13;;;6.20;99.90;;;;;;5033007;28;20470;-31
2022/01/30 08:34:09;;;;;;;13.65;2.15;;;6.20;99.90;;;;;;5032955;28;20489;-34
2022/01/30 08:36:34;;;;;;;25.42;3.00;;;6.30;99.90;;;;;;5032867;28;20056;-35
2022/01/30 08:39:00;;;;;;;21.15;2.92;;;6.30;99.90;;;;;;5032899;28;20036;-39
2022/01/30 08:41:26;;;;;;;20.23;2.80;;;6.40;99.90;;;;;;5032886;28;20018;-31
2022/01/30 08:43:51;;;;;;;16.95;2.58;;;6.40;99.90;;;;;;5032815;28;20032;-36
2022/01/30 08:46:17;;;;;;;21.60;4.22;;;6.50;99.90;;;;;;5032849;28;20034;-35
2022/01/30 08:48:43;;;;;;;28.27;4.63;;;6.60;99.90;;;;;;5032913;28;20079;-32
2022/01/30 08:51:09;;;;;;;21.75;3.92;;;6.60;99.90;;;;;;5032773;28;20025;-38
2022/01/30 08:53:35;;;;;;;27.77;3.28;;;6.60;99.90;;;;;;5033023;28;20405;-51
2022/01/30 08:56:00;;;;;;;23.77;3.63;;;6.70;99.90;;;;;;5032626;28;20125;-37
2022/01/30 08:58:26;;;;;;;13.48;2.25;;;6.70;99.90;;;;;;5032718;28;20033;-34
2022/01/30 09:00:52;;;;;;;31.00;2.90;;;6.70;99.90;;;;;;5032612;28;20029;-38
2022/01/30 09:03:17;;;;;;;24.27;3.80;;;6.80;99.90;;;;;;5032499;28;20049;-35
2022/01/30 09:05:43;;;;;;;19.92;3.38;;;6.70;99.90;;;;;;5032634;28;20113;-35
2022/01/30 09:08:09;;;;;;;18.35;2.88;;;6.70;99.90;;;;;;5032854;28;20581;-33
2022/01/30 09:10:36;;;;;;;20.67;3.97;;;6.80;99.90;;;;;;5032746;28;20053;-36
2022/01/30 09:13:03;;;;;;;13.95;2.72;;;6.90;99.90;;;;;;5032623;28;20504;-31
2022/01/30 09:15:29;;;;;;;16.75;2.67;;;6.90;99.90;;;;;;5032406;28;20032;-35
2022/01/30 09:17:57;;;;;;;18.73;2.58;;;7.00;99.90;;;;;;5032584;28;20486;-36
2022/01/30 09:20:23;;;;;;;;;;;7.10;99.90;;;;;;5031514;28;20133;-33
2022/01/30 09:22:49;;;;;;;34.03;3.15;;;7.10;99.90;;;;;;5032466;28;20384;-34
2022/01/30 09:25:15;;;;;;;25.27;3.42;;;7.20;99.90;;;;;;5032680;28;20026;-36
2022/01/30 09:27:40;;;;;;;23.38;3.72;;;7.10;99.90;;;;;;5032642;28;20488;-36
2022/01/30 09:30:07;;;;;;;24.33;3.00;;;7.10;99.90;;;;;;5032520;28;20060;-36
2022/01/30 09:32:34;;;;;;;16.52;2.88;;;7.20;99.90;;;;;;5032358;28;20026;-34
2022/01/30 09:34:59;;;;;;;23.10;2.92;;;7.30;99.90;;;;;;5032084;28;20125;-32
2022/01/30 09:37:25;;;;;;;20.67;2.67;;;7.30;99.90;;;;;;5032311;28;20120;-34
2022/01/30 09:39:51;;;;;;;25.98;2.63;;;7.30;99.90;;;;;;5032894;28;20022;-34
2022/01/30 09:42:16;;;;;;;25.58;3.45;;;7.30;99.90;;;;;;5036111;28;20061;-34
2022/01/30 09:44:43;;;;;;;26.38;2.80;;;7.30;99.90;;;;;;5036010;28;20029;-39
2022/01/30 09:47:14;;;;;;;17.15;2.78;;;7.40;99.90;;;;;;5034757;28;20036;-32
2022/01/30 09:49:46;;;;;;;18.90;2.38;;;7.50;99.90;;;;;;5036167;28;20030;-33
2022/01/30 09:52:11;;;;;;;17.67;2.55;;;7.60;99.90;;;;;;5035852;28;20033;-38
2022/01/30 09:54:37;;;;;;;23.67;3.20;;;7.70;99.90;;;;;;5035958;28;20470;-35
2022/01/30 09:57:03;;;;;;;21.98;2.67;;;7.90;99.90;;;;;;5035743;28;20038;-34
2022/01/30 09:59:29;;;;;;;23.38;3.25;;;8.10;99.90;;;;;;5035753;28;20025;-32
2022/01/30 10:01:54;;;;;;;27.95;3.33;;;8.10;99.90;;;;;;5035756;28;20029;-34
2022/01/30 10:04:20;;;;;;;22.45;3.20;;;8.30;99.90;;;;;;5035576;28;20047;-38
2022/01/30 10:06:52;;;;;;;17.33;2.45;;;8.40;99.90;;;;;;5034496;28;20124;-35
2022/01/30 10:09:31;;;;;;;16.75;3.67;;;8.50;99.90;;;;;;5035692;28;20029;-34
2022/01/30 10:12:19;;;;;;;18.45;3.45;;;8.40;99.90;;;;;;5035879;28;20482;-35
2022/01/30 10:15:02;;;;;;;;;;;8.30;99.90;;;;;;5036272;28;20425;-34
2022/01/30 10:17:40;;;;;;;21.92;2.40;;;8.30;99.90;;;;;;5035388;28;19917;-36
2022/01/30 10:20:20;;;;;;;20.70;2.50;;;8.20;99.90;;;;;;5035391;28;20060;-32
2022/01/30 10:22:54;;;;;;;25.33;2.72;;;8.10;99.90;;;;;;5035394;28;20830;-31
2022/01/30 10:25:29;;;;;;;22.50;3.10;;;8.00;99.90;;;;;;5035330;28;20156;-32
2022/01/30 10:28:27;;;;;;;22.73;3.08;;;8.00;99.90;;;;;;5035298;28;20021;-31
2022/01/30 10:30:55;;;;;;;17.80;2.33;;;8.10;99.90;;;;;;5033835;28;20045;-31
2022/01/30 10:33:42;;;;;;;15.00;2.30;;;8.20;99.90;;;;;;5035293;28;20030;-33
2022/01/30 10:36:10;;;;;;;20.75;3.03;;;8.20;99.90;;;;;;5034930;28;20501;-31
2022/01/30 10:38:49;;;;;;;30.48;3.60;;;8.40;99.90;;;;;;5035272;28;20021;-30
2022/01/30 10:41:30;;;;;;;17.58;3.17;;;8.50;99.90;;;;;;5035068;28;20029;-37
2022/01/30 10:44:00;;;;;;;30.45;3.85;;;8.50;99.90;;;;;;5034920;28;20040;-31
2022/01/30 10:46:45;;;;;;;26.88;3.42;;;8.50;99.90;;;;;;5035118;28;20564;-35
2022/01/30 10:49:17;;;;;;;32.78;3.20;;;8.60;99.90;;;;;;5034747;28;20044;-33
2022/01/30 10:51:52;;;;;;;22.45;3.85;;;8.40;99.90;;;;;;5034307;28;20037;-37
2022/01/30 10:54:18;;;;;;;24.20;3.33;;;8.30;99.90;;;;;;5034786;28;20044;-33
2022/01/30 10:56:44;;;;;;;12.95;4.00;;;8.30;99.90;;;;;;5034687;28;20240;-35
2022/01/30 10:59:15;;;;;;;19.88;3.40;;;8.30;99.90;;;;;;5034751;28;20068;-33
2022/01/30 11:01:43;;;;;;;17.42;3.30;;;8.40;99.90;;;;;;5034728;28;20025;-34
2022/01/30 11:04:26;;;;;;;23.85;2.78;;;8.30;99.90;;;;;;5034450;28;20085;-36
2022/01/30 11:06:53;;;;;;;20.23;3.38;;;8.40;99.90;;;;;;5034508;28;20033;-34
2022/01/30 11:09:24;;;;;;;34.28;2.88;;;8.50;99.90;;;;;;5034448;28;20037;-30
2022/01/30 11:11:56;;;;;;;21.50;3.90;;;8.60;99.90;;;;;;5034812;28;20040;-34
2022/01/30 11:14:34;;;;;;;17.42;3.10;;;8.60;99.90;;;;;;5034476;28;20029;-36
2022/01/30 11:17:05;;;;;;;20.77;2.90;;;8.40;99.90;;;;;;5034503;28;20575;-36
2022/01/30 11:19:33;;;;;;;13.75;2.85;;;8.30;99.90;;;;;;5034462;28;20029;-36
2022/01/30 11:22:07;;;;;;;19.75;2.80;;;8.30;99.90;;;;;;5034595;28;20417;-32
2022/01/30 11:24:42;;;;;;;22.08;3.53;;;8.10;99.90;;;;;;5034543;28;20028;-31
2022/01/30 11:27:09;;;;;;;16.80;2.72;;;8.00;99.90;;;;;;5034282;28;20041;-31
2022/01/30 11:29:39;;;;;;;25.08;2.90;;;7.90;99.90;;;;;;5034121;28;20068;-43
2022/01/30 11:32:06;;;;;;;27.67;3.55;;;8.10;99.90;;;;;;5034390;28;20538;-35
2022/01/30 11:34:37;;;;;;;21.75;3.08;;;8.20;99.90;;;;;;5034146;28;20032;-32
2022/01/30 11:37:04;;;;;;;27.67;3.13;;;8.40;99.90;;;;;;5033963;28;20087;-33
2022/01/30 11:39:31;;;;;;;23.43;3.30;;;8.60;99.90;;;;;;5033981;28;20029;-33
2022/01/30 11:42:23;;;;;;;33.50;3.72;;;8.80;99.90;;;;;;5033935;28;20108;-33
2022/01/30 11:45:09;;;;;;;14.90;2.72;;;8.70;99.90;;;;;;5034128;28;20055;-36
2022/01/30 11:47:51;;;;;;;34.42;3.47;;;8.70;99.90;;;;;;5033824;28;20084;-31
2022/01/30 11:50:31;;;;;;;27.00;3.50;;;8.60;99.90;;;;;;5033448;28;20057;-35
2022/01/30 11:53:03;;;;;;;14.85;3.08;;;8.70;99.90;;;;;;5032695;28;20464;-33
2022/01/30 11:55:50;;;;;;;33.88;3.90;;;8.50;99.90;;;;;;5033875;28;20029;-32
2022/01/30 11:58:33;;;;;;;22.92;3.70;;;8.60;99.90;;;;;;5033760;28;20536;-33
2022/01/30 12:01:25;;;;;;;20.63;4.75;;;8.80;99.90;;;;;;5033755;28;20060;-29
2022/01/30 12:04:12;;;;;;;20.77;4.40;;;9.10;99.90;;;;;;5031801;28;20175;-32
2022/01/30 12:06:43;;;;;;;23.38;3.80;;;9.20;99.90;;;;;;5033280;28;20059;-36
2022/01/30 12:09:16;;;;;;;17.33;3.67;;;8.80;99.90;;;;;;5033290;28;20029;-36
2022/01/30 12:11:47;;;;;;;26.50;3.05;;;8.60;99.90;;;;;;5033253;28;20087;-31
2022/01/30 12:14:21;;;;;;;28.38;2.97;;;8.30;99.90;;;;;;5033275;28;20040;-34
2022/01/30 12:16:52;;;;;;;26.55;2.83;;;8.20;99.90;;;;;;5033113;28;20034;-30
2022/01/30 12:19:45;;;;;;;22.17;3.58;;;8.20;99.90;;;;;;5033172;28;20037;-36
2022/01/30 12:22:17;;;;;;;20.48;2.92;;;8.10;99.90;;;;;;5033109;28;20071;-41
2022/01/30 12:24:48;;;;;;;21.60;3.35;;;8.20;99.90;;;;;;5033333;28;20433;-35
2022/01/30 12:27:14;;;;;;;14.50;2.65;;;8.20;99.90;;;;;;5031696;28;20050;-36
2022/01/30 12:29:51;;;;;;;17.92;3.65;;;8.10;99.90;;;;;;5033039;28;20060;-36
2022/01/30 12:32:22;;;;;;;26.95;3.08;;;8.30;99.90;;;;;;5033077;28;20099;-39
2022/01/30 12:34:54;;;;;;;14.05;3.08;;;8.50;99.90;;;;;;5032879;28;20116;-30
2022/01/30 12:37:40;;;;;;;22.05;3.42;;;8.80;99.90;;;;;;5032756;28;20061;-36
2022/01/30 12:40:20;;;;;;;20.55;3.08;;;9.00;99.90;;;;;;5032699;28;20486;-50
2022/01/30 12:42:46;;;;;;;19.00;2.92;;;9.00;99.90;;;;;;5033142;28;20025;-45
2022/01/30 12:45:13;;;;;;;15.75;2.92;;;9.30;99.90;;;;;;5032766;28;20025;-36
2022/01/30 12:47:49;;;;;;;23.65;3.33;;;9.50;99.90;;;;;;5032754;28;20112;-36
2022/01/30 12:50:16;;;;;;;18.95;3.28;;;9.40;99.90;;;;;;5032922;28;20116;-30
2022/01/30 12:52:46;;;;;;;37.33;3.70;;;9.20;99.90;;;;;;5032870;28;20040;-35
2022/01/30 12:55:13;;;;;;;20.50;3.85;;;9.00;99.90;;;;;;5032662;28;20034;-33
2022/01/30 12:57:43;;;;;;;19.92;2.80;;;9.10;99.90;;;;;;5032543;28;20072;-30
2022/01/30 13:00:12;;;;;;;17.20;2.92;;;9.30;99.90;;;;;;5032480;28;20113;-37
2022/01/30 13:02:38;;;;;;;29.27;3.20;;;9.40;99.90;;;;;;5032500;28;20482;-29
2022/01/30 13:05:06;;;;;;;19.55;3.72;;;9.50;99.90;;;;;;5032333;28;20040;-30
2022/01/30 13:07:33;;;;;;;16.05;2.83;;;9.40;99.90;;;;;;5032526;28;20046;-36
2022/01/30 13:10:11;;;;;;;19.80;3.20;;;9.10;99.90;;;;;;5032204;28;20501;-37
2022/01/30 13:12:37;;;;;;;24.35;3.70;;;9.00;99.90;;;;;;5032747;28;20482;-31
2022/01/30 13:15:10;;;;;;;26.17;2.85;;;8.90;99.90;;;;;;5034948;28;20037;-36
2022/01/30 13:17:37;;;;;;;25.05;3.35;;;8.70;99.90;;;;;;5036524;28;20027;-39
2022/01/30 13:20:04;;;;;;;22.67;3.45;;;8.50;99.90;;;;;;5036317;28;20079;-34
2022/01/30 13:22:37;;;;;;;17.90;4.53;;;8.50;99.90;;;;;;5036459;28;20029;-40
2022/01/30 13:25:06;;;;;;;26.27;2.78;;;8.70;99.90;;;;;;5036847;28;20497;-32
2022/01/30 13:27:32;;;;;;;20.75;2.78;;;8.80;99.90;;;;;;5036284;28;20033;-34
2022/01/30 13:29:58;;;;;;;20.77;4.10;;;9.00;99.90;;;;;;5036159;28;20029;-39
2022/01/30 13:32:28;;;;;;;23.85;3.92;;;9.00;99.90;;;;;;5036228;28;20049;-37
2022/01/30 13:34:57;;;;;;;23.55;5.80;;;8.90;99.90;;;;;;5036377;28;20477;-32
2022/01/30 13:37:23;;;;;;;16.52;2.50;;;8.80;99.90;;;;;;5036565;28;20029;-30
2022/01/30 13:45:05;;;;;;;20.98;2.85;;;8.70;99.90;;;;;;5036146;28;20026;-35
2022/01/30 13:47:32;;;;;;;26.50;3.28;;;8.60;99.90;;;;;;5036011;28;20021;-32
2022/01/30 13:49:57;;;;;;;30.88;4.20;;;8.50;99.90;;;;;;5035675;28;20088;-33
2022/01/30 13:52:30;;;;;;;31.10;3.10;;;8.50;99.90;;;;;;5035829;28;20025;-34
2022/01/30 13:55:07;;;;;;;27.73;3.45;;;8.60;99.90;;;;;;5035998;28;20036;-33
2022/01/30 13:57:35;;;;;;;27.92;2.88;;;8.70;99.90;;;;;;5036002;28;20105;-39
2022/01/30 14:00:10;;;;;;;15.65;3.08;;;8.60;99.90;;;;;;5035734;28;20136;-32
2022/01/30 14:03:10;;;;;;;29.25;3.70;;;8.70;99.90;;;;;;5034002;28;20083;-38